Weather observations for the past three days for
Springfield, Comanche National Grassland
Imperial (Metric)
Date Time (mdt) Wind (mph) Vis. (mi.) Weather Sky Cond. Temperature (ºF) Relative Humidity Wind Chill (°F) Heat Index (°F) Pressure Precipitation (in)
Air Dwpt 6 hour altimeter (in) sea level (mb) 1 hr 3 hr 6 hr
Max. Min.
07 05:56 W 9 0.00 NULL NULL 34 27 34 28.9 76% 27 30.08 1018.4
07 04:56 SW 12 0.00 NULL NULL 30.9 27 85% 22 30.08 1018.3
07 03:56 SW 12 0.00 NULL NULL 30 27 88% 21 30.09 1019.2
07 02:56 SW 9 0.00 NULL NULL 30 27 88% 22 30.1 1019.4
07 01:56 SW 8 0.00 NULL NULL 28.9 27 92% 22 30.13 1020.6
07 00:56 SW 7 0.00 NULL NULL 28.9 27 92% 23 30.13 1020.8
06 22:56 SW 6 0.00 NULL NULL 32 30 92% 27 30.15 1021.3
06 21:56 SW 3 0.00 NULL NULL 35.1 32 89% 30.16 1021.1
06 20:56 NW 5 0.00 NULL NULL 39 35.1 86% 36 30.14 1020.3
06 19:56 W 3 0.00 NULL NULL 37.9 35.1 89% 30.13 1020.2
06 18:56 N 7 0.00 NULL NULL 39 36 89% 35 30.12 1019.5
06 17:56 N 9 0.00 NULL NULL 37.9 36 41 37 93% 32 30.12 1019.7 0.01
06 16:56 Calm 0.00 NULL NULL 41 37 86% 30.09 1018.3 0.01
06 15:56 SE 5 0.00 NULL NULL 39.9 37 89% 37 30.08 1018.2
06 14:56 SE 10 0.00 NULL NULL 39 36 89% 33 30.08 1018.2
06 13:56 SE 10 0.00 NULL NULL 39.9 37 89% 34 30.07 1017.9
06 12:56 SE 15 0.00 NULL NULL 39 36 89% 31 30.07 1017.6
06 11:56 E 14 0.00 NULL NULL 39.9 37.9 39.9 36 93% 33 30.07 1017.5 0.02 0.16
06 10:56 E 14 0.00 NULL NULL 37.9 37 97% 30 30.07 1017.3 0.02
06 09:56 E 13 0.00 NULL NULL 37 35.1 93% 30 30.05 1016.6 0.06
06 08:56 E 12 0.00 NULL NULL 36 35.1 97% 29 30.04 1016.4 0.02 0.06
06 07:56 E 12 0.00 NULL NULL 36 35.1 97% 29 30.04 1016.1 0.02
06 06:56 SE 12 0.00 NULL NULL 36 35.1 97% 29 30.02 1015.4 0.02
06 05:56 E 9 0.00 NULL NULL 36 35.1 39.9 35.1 97% 30 30 1014.5 0.01
06 04:56 E 12 0.00 NULL NULL 36 34 93% 29 29.97 1013.3
06 03:56 E 10 0.00 NULL NULL 36 34 93% 29 29.97 1013.3
06 02:56 E 10 0.00 NULL NULL 36 34 93% 29 29.96 1013.2 0.01 0.01
06 01:56 E 10 0.00 NULL NULL 36 34 93% 29 29.98 1013.7
06 00:56 E 15 0.00 NULL NULL 37.9 33.1 83% 30 29.98 1013.8
05 23:56 E 15 0.00 NULL NULL 39.9 33.1 48 39.9 77% 32 29.95 1012.8
05 22:56 E 15 G 21 0.00 NULL NULL 41 33.1 73% 34 29.95 1012.4
05 21:56 E 9 0.00 NULL NULL 42.1 34 73% 37 29.95 1012.4
05 20:56 E 13 0.00 NULL NULL 43 34 71% 37 29.92 1011.2
05 19:56 E 17 0.00 NULL NULL 45 33.1 63% 38 29.88 1010.0
05 18:56 SE 15 0.00 NULL NULL 48 33.1 56% 43 29.86 1008.7
05 17:56 E 14 0.00 NULL NULL 48 34 51.1 46 58% 43 29.87 1009.1
05 16:56 E 9 0.00 NULL NULL 48.9 33.1 55% 45 29.88 1009.1
05 15:56 E 12 0.00 NULL NULL 48.9 32 52% 45 29.88 1009.1
05 14:56 E 13 G 21 0.00 NULL NULL 48.9 32 52% 44 29.89 1009.3
05 13:56 E 14 0.00 NULL NULL 48.9 33.1 55% 44 29.89 1009.3
05 12:56 E 13 G 20 0.00 NULL NULL 48 33.1 56% 43 29.91 1009.9
05 11:56 NE 13 0.00 NULL NULL 46 32 46.9 44.1 58% 41 29.94 1010.7
05 10:56 NE 16 0.00 NULL NULL 46.9 32 56% 41 29.93 1010.0
05 09:56 NE 18 G 23 0.00 NULL NULL 46 33.1 61% 39 29.93 1009.8
05 08:56 NE 18 0.00 NULL NULL 46 35.1 66% 39 29.93 1009.8
05 07:56 N 16 0.00 NULL NULL 45 36 71% 38 29.93 1009.7
05 06:56 N 17 0.00 NULL NULL 45 37 74% 38 29.9 1007.8
05 05:56 NE 10 0.00 NULL NULL 45 33.1 57.9 45 63% 40 29.86 1006.3
05 04:56 NE 7 0.00 NULL NULL 46 32 58% 43 29.84 1005.3
05 03:56 NE 20 0.00 NULL NULL 48 32 54% 42 29.83 1004.8
05 02:56 NE 16 0.00 NULL NULL 48 33.1 56% 42 29.81 1004.2
05 01:56 NE 18 0.00 NULL NULL 51.1 34 52% 29.8 1003.6
05 00:56 NE 21 G 32 0.00 Breezy NULL 54 35.1 49% 29.78 1002.8
04 23:56 NE 26 G 44 0.00 Windy NULL 57.9 39 79 57.9 50% 29.73 1000.8
04 22:56 NE 9 0.00 NULL NULL 62.1 30 30% 29.67 998.3
04 21:56 N 12 0.00 NULL NULL 66 28.9 25% 29.65 997.7
04 19:56 NW 6 0.00 NULL NULL 66.9 27 22% 29.63 997.5
04 18:56 W 7 0.00 NULL NULL 73.9 25 16% 29.63 997.5
04 17:56 W 14 0.00 NULL NULL 79 21.9 82.9 79 12% 77 29.64 998.2
04 16:56 W 10 G 21 0.00 NULL NULL 81 26.1 13% 79 29.64 998.3
04 15:56 W 9 G 30 0.00 NULL NULL 81 27 14% 79 29.65 998.7
04 14:56 W 14 G 24 0.00 NULL NULL 82 28 14% 80 29.68 999.3
04 13:56 W 10 G 24 0.00 NULL NULL 80.1 28.9 15% 78 29.7 1000.2
04 12:56 W 15 G 24 0.00 NULL NULL 80.1 30 16% 78 29.72 1000.7
04 11:56 W 21 G 30 0.00 Breezy NULL 80.1 30 81 51.1 16% 78 29.75 1001.7
04 10:56 NW 14 G 25 0.00 NULL NULL 78.1 30.9 18% 77 29.76 1002.0
04 09:56 W 23 G 31 0.00 Breezy NULL 75.9 30.9 19% 76 29.78 1001.8
04 08:56 W 17 G 29 0.00 NULL NULL 72 28.9 20% 29.79 1003.1
04 07:56 NW 20 0.00 NULL NULL 66.9 28.9 24% 29.8 1003.4
04 06:56 W 10 0.00 NULL NULL 59 28.9 32% 29.79 1003.3
Date Time (mdt) Wind (mph) Vis. (mi.) Weather Sky Cond. Air Dwpt Max. Min. Relative Humidity Wind Chill (°F) Heat Index (°F) altimeter (in) sea level (mb) 1 hr 3 hr 6 hr
6 hour
Temperature (ºF) Pressure Precipitation (in)